createdAt,value
2019-02-10T00:02:20.339Z,5.34
2019-02-10T00:07:28.422Z,6.48
2019-02-10T00:12:36.629Z,6.04
2019-02-10T00:17:44.668Z,6.40
2019-02-10T00:22:52.772Z,6.59
2019-02-10T00:28:01.020Z,5.63
2019-02-10T00:33:09.234Z,6.37
2019-02-10T00:38:17.348Z,6.03
2019-02-10T00:43:25.577Z,6.28
2019-02-10T00:48:33.689Z,6.45
2019-02-10T00:53:41.774Z,5.84
2019-02-10T00:58:49.833Z,5.58
2019-02-10T01:03:57.969Z,5.71
2019-02-10T01:09:06.089Z,6.27
2019-02-10T01:14:14.233Z,5.84
2019-02-10T01:19:22.379Z,6.06
2019-02-10T01:24:30.466Z,6.20
2019-02-10T01:29:38.912Z,6.43
2019-02-10T01:34:47.069Z,6.21
2019-02-10T01:39:55.244Z,5.98
2019-02-10T01:45:03.392Z,6.34
2019-02-10T01:50:11.465Z,6.59
2019-02-10T01:55:19.485Z,6.36
2019-02-10T02:00:27.585Z,6.30
2019-02-10T02:05:35.552Z,7.02
2019-02-10T02:10:43.662Z,6.40
2019-02-10T02:15:51.696Z,6.08
2019-02-10T02:20:59.801Z,7.28
2019-02-10T02:26:07.832Z,6.25
2019-02-10T02:31:15.954Z,7.01
2019-02-10T02:36:23.968Z,6.40
2019-02-10T02:41:31.382Z,6.14
2019-02-10T02:46:39.414Z,6.38
2019-02-10T02:51:47.533Z,6.15
2019-02-10T02:56:55.596Z,5.87
2019-02-10T03:02:03.674Z,5.67
2019-02-10T03:07:17.762Z,5.86
2019-02-10T03:12:18.412Z,5.55
2019-02-10T03:17:26.514Z,5.58
2019-02-10T03:22:34.781Z,5.99
2019-02-10T03:27:42.877Z,5.78
2019-02-10T03:32:51.311Z,6.00
2019-02-10T03:37:59.434Z,5.65
2019-02-10T03:43:07.401Z,6.31
2019-02-10T03:48:15.510Z,5.70
2019-02-10T03:53:23.471Z,5.40
2019-02-10T03:58:31.550Z,5.63
2019-02-10T04:03:39.644Z,5.54
2019-02-10T04:08:47.739Z,6.11
2019-02-10T04:13:55.738Z,5.52
2019-02-10T04:19:03.699Z,5.59
2019-02-10T04:24:11.857Z,5.79
2019-02-10T04:29:19.962Z,5.31
2019-02-10T04:34:28.085Z,5.42
2019-02-10T04:39:36.457Z,5.13
2019-02-10T04:44:44.588Z,5.77
2019-02-10T04:49:52.602Z,5.86
2019-02-10T04:55:00.665Z,5.25
2019-02-10T05:00:08.717Z,5.52
2019-02-10T05:05:16.833Z,5.81
2019-02-10T05:10:24.973Z,4.91
2019-02-10T05:15:33.141Z,5.11
2019-02-10T05:20:41.236Z,5.36
2019-02-10T05:25:49.341Z,5.22
2019-02-10T05:30:57.389Z,5.49
2019-02-10T05:36:05.460Z,5.69
2019-02-10T05:41:13.497Z,5.02
2019-02-10T05:46:21.653Z,5.18
2019-02-10T05:51:29.757Z,5.71
2019-02-10T05:56:37.877Z,4.55
2019-02-10T06:01:46.020Z,5.40
2019-02-10T06:06:54.113Z,5.23
2019-02-10T06:12:02.163Z,4.87
2019-02-10T06:17:10.253Z,5.18
2019-02-10T06:22:18.329Z,5.16
2019-02-10T06:27:26.459Z,4.75
2019-02-10T06:32:34.569Z,5.50
2019-02-10T06:37:42.688Z,4.77
2019-02-10T06:42:50.793Z,5.29
2019-02-10T06:47:58.966Z,5.41
2019-02-10T06:53:06.988Z,5.04
2019-02-10T06:58:15.025Z,4.88
2019-02-10T07:03:23.089Z,4.67
2019-02-10T07:08:31.470Z,5.00
2019-02-10T07:13:40.116Z,4.98
2019-02-10T07:18:48.195Z,4.70
2019-02-10T07:23:56.279Z,5.38
2019-02-10T07:29:04.319Z,5.47
2019-02-10T07:34:12.369Z,5.40
2019-02-10T07:39:20.497Z,5.06
2019-02-10T07:44:28.597Z,5.01
2019-02-10T07:49:36.666Z,5.04
2019-02-10T07:54:44.922Z,4.68
2019-02-10T07:59:52.992Z,4.53
2019-02-10T08:05:00.222Z,4.77
2019-02-10T08:10:08.240Z,5.20
2019-02-10T08:15:14.751Z,4.89
2019-02-10T08:20:22.819Z,4.78
2019-02-10T08:25:30.965Z,4.92
2019-02-10T08:30:38.945Z,5.29
2019-02-10T08:35:47.153Z,5.02
2019-02-10T08:40:55.254Z,5.04
2019-02-10T08:45:57.161Z,5.29
2019-02-10T08:51:05.228Z,4.67
2019-02-10T08:56:13.372Z,4.81
2019-02-10T09:01:21.505Z,4.89
2019-02-10T09:06:31.053Z,4.40
2019-02-10T09:11:39.155Z,3.77
2019-02-10T09:16:50.160Z,4.26
2019-02-10T09:21:48.104Z,4.69
2019-02-10T09:26:56.099Z,4.96
2019-02-10T09:32:04.028Z,4.77
2019-02-10T09:37:12.072Z,5.20
2019-02-10T09:42:20.014Z,4.98
2019-02-10T09:47:27.981Z,5.03
2019-02-10T09:52:35.973Z,5.21
2019-02-10T09:57:44.091Z,5.24
2019-02-10T10:02:52.226Z,5.07
2019-02-10T10:08:00.344Z,5.08
2019-02-10T10:13:08.435Z,5.70
2019-02-10T10:18:16.599Z,5.49
2019-02-10T10:23:24.709Z,5.78
2019-02-10T10:28:32.680Z,5.55
2019-02-10T10:33:40.668Z,5.86
2019-02-10T10:38:48.797Z,5.88
2019-02-10T10:43:55.314Z,5.49
2019-02-10T10:49:03.372Z,5.17
2019-02-10T10:54:11.489Z,5.57
2019-02-10T10:59:19.644Z,5.68
2019-02-10T11:04:27.726Z,5.77
2019-02-10T11:09:35.891Z,5.75
2019-02-10T11:14:43.891Z,6.08
2019-02-10T11:19:51.982Z,6.35
2019-02-10T11:25:00.044Z,5.78
2019-02-10T11:30:08.214Z,6.18
2019-02-10T11:35:16.279Z,5.83
2019-02-10T11:40:24.417Z,5.77
2019-02-10T11:45:32.541Z,6.01
2019-02-10T11:50:40.662Z,5.38
2019-02-10T11:55:48.732Z,5.95
2019-02-10T12:00:57.332Z,5.49
2019-02-10T12:06:05.473Z,5.74
2019-02-10T12:11:13.457Z,7.07
2019-02-10T12:16:21.597Z,5.97
2019-02-10T12:21:29.539Z,6.64
2019-02-10T12:26:37.597Z,7.12
2019-02-10T12:31:45.599Z,6.26
2019-02-10T12:36:53.577Z,6.47
2019-02-10T12:42:01.504Z,6.80
2019-02-10T12:47:09.651Z,6.03
2019-02-10T12:52:17.645Z,6.34
2019-02-10T12:57:25.813Z,6.72
2019-02-10T13:02:33.925Z,6.35
2019-02-10T13:07:42.136Z,6.03
2019-02-10T13:12:50.254Z,6.32
2019-02-10T13:17:58.361Z,7.49
2019-02-10T13:23:06.515Z,6.98
2019-02-10T13:28:14.577Z,7.70
2019-02-10T13:33:22.687Z,7.12
2019-02-10T13:38:30.757Z,7.80
2019-02-10T13:43:38.887Z,6.69
2019-02-10T13:48:40.797Z,6.26
2019-02-10T13:53:48.892Z,5.19
2019-02-10T13:58:57.001Z,5.62
2019-02-10T14:04:05.095Z,5.30
2019-02-10T14:09:13.109Z,4.93
2019-02-10T14:14:22.201Z,4.40
2019-02-10T14:19:28.542Z,4.01
2019-02-10T14:24:36.494Z,3.90
2019-02-10T14:29:44.504Z,4.21
2019-02-10T14:34:52.666Z,4.41
2019-02-10T14:40:00.742Z,4.10
2019-02-10T14:45:08.733Z,3.84
2019-02-10T14:50:16.801Z,5.10
2019-02-10T14:55:24.764Z,4.92
2019-02-10T15:00:32.856Z,5.87
2019-02-10T15:05:41.305Z,6.17
2019-02-10T15:10:49.381Z,5.96
2019-02-10T15:15:57.353Z,5.16
2019-02-10T15:21:05.302Z,5.74
2019-02-10T15:26:13.847Z,5.81
2019-02-10T15:31:21.992Z,6.18
2019-02-10T15:36:30.162Z,6.80
2019-02-10T15:41:38.333Z,5.07
2019-02-10T15:46:46.500Z,4.83
2019-02-10T15:51:54.634Z,5.51
2019-02-10T15:57:03.265Z,6.28
2019-02-10T16:02:11.402Z,5.15
2019-02-10T16:07:19.661Z,5.61
2019-02-10T16:12:27.841Z,6.60
2019-02-10T16:17:36.135Z,7.10
2019-02-10T16:22:44.407Z,7.50
2019-02-10T16:27:52.577Z,7.12
2019-02-10T16:33:00.809Z,6.59
2019-02-10T16:38:08.918Z,6.79
2019-02-10T16:43:17.161Z,7.44
2019-02-10T16:48:25.474Z,7.27
2019-02-10T16:53:33.771Z,7.16
2019-02-10T16:58:41.949Z,6.65
2019-02-10T17:03:50.184Z,6.10
2019-02-10T17:08:58.445Z,6.24
2019-02-10T17:14:06.785Z,5.99
2019-02-10T17:19:15.523Z,6.91
2019-02-10T17:24:24.165Z,6.55
2019-02-10T17:29:32.201Z,6.63
2019-02-10T17:34:40.532Z,6.41
2019-02-10T17:39:48.877Z,6.19
2019-02-10T17:44:57.561Z,5.91
2019-02-10T17:50:05.951Z,7.19
2019-02-10T17:55:14.021Z,5.17
2019-02-10T18:00:23.044Z,5.25
2019-02-10T18:05:31.241Z,6.82
2019-02-10T18:10:39.891Z,4.78
2019-02-10T18:15:48.760Z,4.07
2019-02-10T18:20:56.959Z,4.41
2019-02-10T18:26:05.124Z,4.79
2019-02-10T18:31:13.615Z,3.85
2019-02-10T18:36:15.065Z,4.32
2019-02-10T18:41:23.583Z,4.07
2019-02-10T18:46:31.895Z,5.12
2019-02-10T18:51:40.370Z,6.79
2019-02-10T18:56:48.797Z,6.61
2019-02-10T19:01:57.461Z,6.21
2019-02-10T19:07:05.993Z,4.72
2019-02-10T19:12:15.040Z,4.84
2019-02-10T19:17:24.536Z,5.72
2019-02-10T19:22:34.405Z,5.80
2019-02-10T19:27:43.040Z,6.30
2019-02-10T19:32:51.477Z,6.54
2019-02-10T19:38:00.053Z,6.77
2019-02-10T19:43:09.067Z,6.36
2019-02-10T19:48:17.290Z,6.47
2019-02-10T19:53:25.847Z,8.21
2019-02-10T19:58:34.142Z,8.54
2019-02-10T20:03:42.378Z,7.47
2019-02-10T20:08:51.017Z,3.72
2019-02-10T20:13:59.576Z,3.19
2019-02-10T20:19:07.712Z,2.97
2019-02-10T20:24:15.830Z,2.81
2019-02-10T20:29:24.007Z,3.05
2019-02-10T20:34:32.566Z,2.94
2019-02-10T20:39:40.756Z,2.98
2019-02-10T20:44:49.089Z,2.63
2019-02-10T20:49:57.444Z,2.51
2019-02-10T20:55:05.749Z,2.68
2019-02-10T21:00:14.000Z,2.87
2019-02-10T21:05:22.375Z,4.17
2019-02-10T21:10:30.931Z,2.99
2019-02-10T21:15:39.438Z,4.90
2019-02-10T21:20:47.565Z,2.96
2019-02-10T21:25:55.810Z,3.33
2019-02-10T21:31:04.035Z,4.12
2019-02-10T21:36:12.601Z,4.90
2019-02-10T21:41:20.557Z,4.83
2019-02-10T21:46:29.129Z,5.44
2019-02-10T21:51:37.324Z,5.52
2019-02-10T21:56:45.545Z,5.49
2019-02-10T22:01:53.942Z,5.42
2019-02-10T22:07:01.940Z,4.96
2019-02-10T22:12:10.149Z,5.63
2019-02-10T22:17:19.099Z,6.31
2019-02-10T22:22:18.684Z,6.26
2019-02-10T22:27:26.862Z,6.80
2019-02-10T22:32:35.042Z,7.24
2019-02-10T22:37:44.423Z,8.86
2019-02-10T22:42:52.558Z,10.44
2019-02-10T22:48:00.845Z,11.90
2019-02-10T22:53:09.321Z,13.40
2019-02-10T22:58:17.495Z,13.77
2019-02-10T23:03:25.659Z,14.06
2019-02-10T23:08:33.826Z,12.25
2019-02-10T23:13:42.012Z,11.21
2019-02-10T23:18:50.211Z,10.91
2019-02-10T23:23:58.622Z,10.34
2019-02-10T23:29:06.883Z,9.31
2019-02-10T23:34:14.986Z,8.43
2019-02-10T23:39:23.204Z,7.78
2019-02-10T23:44:31.325Z,7.34
2019-02-10T23:49:39.561Z,7.35
2019-02-10T23:54:47.980Z,6.55
2019-02-10T23:59:56.240Z,6.13
